Mankato, MN (56002)

4:20 PM CDT on August 31, 2015 (GMT -0500)
Physics & Astronomy | | Change Station
CLOSE
Current Station
Personal Weather Station
Location: Mankato, MN
Elevation: 1010 ft
Nearby Weather Stations

Elev 1010 ft 44.15 °N, 94.00 °W | Updated 19 seconds ago

Partly Cloudy
Partly Cloudy
82.9 °F
Feels Like 87 °F
N
4.0
Wind Variable Wind from SSE
Gusts 16.0 mph

Today
High -- | Low -- °F
--% Chance of Precip.
Yesterday
High -- | Low -- °F
Precip. -- in
6:37 AM 7:54 PM
Waning Gibbous, 93% visible
Pressure 29.90 in
Visibility 10.0 miles
Clouds Mostly Cloudy 4200 ft
Heat Index 87 °F
Dew Point 71 °F
Humidity 67%
Rainfall 0.00 in
Snow Depth Not available.
UV 3 out of 12
Pollen 9.40 out of 12
Air Quality Not available.
Flu Activity Not available.
METAR KMKT 312115Z 18011G16KT 10SM BKN042 28/20 A2990 RMK AO1
Pressure 29.90 in
Visibility 10.0 miles
Clouds Mostly Cloudy 4200 ft
Heat Index 87 °F
Dew Point 71 °F
Humidity 67%
Rainfall 0.00 in
Snow Depth Not available.
UV 3 out of 12
Pollen 9.40 out of 12
Air Quality Not available.
Flu Activity Not available.
METAR KMKT 312115Z 18011G16KT 10SM BKN042 28/20 A2990 RMK AO1

10-Day Weather Forecast

×

Almanac

Astronomy

Aug. 31, 2015 Rise Set
Actual Time
Civil Twilight
Nautical Twilight
Astronomical Twilight
Moon
Length of Visible Light
Length of Day
Tomorrow will be .
, % of the Moon is Illuminated

Today's Extremes

State Highs State Lows

Community

WunderPhotos

Upload Photos

1,851,374 photos uploaded!

WunderBlogs® & News

Nearby

Air Quality

  Air Quality AQ Index Pollutant
Not available.

Snow Depth

Station Depth Elevation

Earthquake Activity

City Distance Mag. Time & Date
Minimum magnitude displayed is 2.5.

Coastal Water Temperatures

Place Temperature

Stations

Nearby Weather Stations

Station Location Temp. Windchill Dew Point Humidity Wind Precip. Elev Updated Type